Grand Canyon, AZ

6:54 PM MST on April 20, 2015 (GMT -0700)
Grand Canyon National Park | | Change Station
CLOSE
Current Station
Airport
Location: Grand Canyon,
Elevation: 6608 ft
Nearby Weather Stations

Elev 6608 ft 35.95 °N, 112.15 °W | Updated 1 hour ago

Clear
Clear
64 °F
Feels Like 64 °F
N
9
Wind Variable Wind from West

Today
High -- | Low -- °F
--% Chance of Precip.
Yesterday
High -- | Low -- °F
Precip. -- in
5:49 AM 7:06 PM
Waxing Crescent, 7% visible
Pressure 29.85 in
Visibility 10.0 miles
Clouds Few 10000 ft
Dew Point 16 °F
Humidity 16%
Rainfall 0.00 in
Snow Depth Not available.
UV 1 out of 12
Pollen 9.00 out of 12
Air Quality Not available.
Flu Activity Local Activity
METAR KGCN 210054Z 27008KT 10SM FEW100 18/M09 A2997 RMK AO2 SLP108 T01781089

More Conditions Fewer Conditions

Pressure 29.85 in
Visibility 10.0 miles
Clouds Few 10000 ft
Dew Point 16 °F
Humidity 16%
Rainfall 0.00 in
Snow Depth Not available.
UV 1 out of 12
Pollen 9.00 out of 12
Air Quality Not available.
Flu Activity Local Activity
METAR KGCN 210054Z 27008KT 10SM FEW100 18/M09 A2997 RMK AO2 SLP108 T01781089

More Conditions Fewer Conditions

10-Day Weather Forecast

Almanac

Astronomy

Apr. 20, 2015 Rise Set
Actual Time
Civil Twilight
Nautical Twilight
Astronomical Twilight
Moon
Length of Visible Light
Length of Day
Tomorrow will be .
, % of the Moon is Illuminated

Today's Extremes

State Highs State Lows

Community

WunderPhotos

Upload Photos

1,815,276 photos uploaded!

WunderBlogs® & News

Nearby

Air Quality

  Air Quality AQ Index Pollutant
Not available.

Snow Depth

Station Depth Elevation

Earthquake Activity

City Distance Mag. Time & Date
Minimum magnitude displayed is 2.5.

Coastal Water Temperatures

Place Temperature

Stations

Nearby Weather Stations

Station Location Temp. Windchill Dew Point Humidity Wind Precip. Elev Updated Type